sensor_id;sensor_type;location;lat;lon;timestamp;P1;durP1;ratioP1;P2;durP2;ratioP2
2570;SDS011;1295;51.130;6.732;2022-10-10T00:02:16;63.53;;;13.13;;
2570;SDS011;1295;51.130;6.732;2022-10-10T00:04:42;62.17;;;13.70;;
2570;SDS011;1295;51.130;6.732;2022-10-10T00:07:08;63.47;;;17.90;;
2570;SDS011;1295;51.130;6.732;2022-10-10T00:09:33;68.10;;;15.77;;
2570;SDS011;1295;51.130;6.732;2022-10-10T00:11:59;65.17;;;12.20;;
2570;SDS011;1295;51.130;6.732;2022-10-10T00:14:25;63.10;;;12.10;;
2570;SDS011;1295;51.130;6.732;2022-10-10T00:16:50;63.87;;;14.80;;
2570;SDS011;1295;51.130;6.732;2022-10-10T00:19:16;62.47;;;9.60;;
2570;SDS011;1295;51.130;6.732;2022-10-10T00:21:42;63.93;;;14.13;;
2570;SDS011;1295;51.130;6.732;2022-10-10T00:24:08;62.50;;;14.70;;
2570;SDS011;1295;51.130;6.732;2022-10-10T00:26:33;63.77;;;12.10;;
2570;SDS011;1295;51.130;6.732;2022-10-10T00:28:59;62.00;;;10.30;;
2570;SDS011;1295;51.130;6.732;2022-10-10T00:31:25;61.90;;;11.90;;
2570;SDS011;1295;51.130;6.732;2022-10-10T00:33:50;63.27;;;15.00;;
2570;SDS011;1295;51.130;6.732;2022-10-10T00:36:16;62.67;;;10.57;;
2570;SDS011;1295;51.130;6.732;2022-10-10T00:38:41;62.17;;;11.90;;
2570;SDS011;1295;51.130;6.732;2022-10-10T00:41:07;64.60;;;11.40;;
2570;SDS011;1295;51.130;6.732;2022-10-10T00:43:33;66.10;;;11.30;;
2570;SDS011;1295;51.130;6.732;2022-10-10T00:45:58;63.27;;;11.43;;
2570;SDS011;1295;51.130;6.732;2022-10-10T00:48:32;62.90;;;10.50;;
2570;SDS011;1295;51.130;6.732;2022-10-10T00:51:02;63.90;;;12.30;;
2570;SDS011;1295;51.130;6.732;2022-10-10T00:53:27;66.20;;;13.97;;
2570;SDS011;1295;51.130;6.732;2022-10-10T00:55:51;62.37;;;12.27;;
2570;SDS011;1295;51.130;6.732;2022-10-10T00:58:17;62.07;;;9.30;;
2570;SDS011;1295;51.130;6.732;2022-10-10T01:00:43;63.10;;;11.63;;
2570;SDS011;1295;51.130;6.732;2022-10-10T01:03:09;64.37;;;11.20;;
2570;SDS011;1295;51.130;6.732;2022-10-10T01:05:35;69.00;;;11.73;;
2570;SDS011;1295;51.130;6.732;2022-10-10T01:08:01;66.63;;;15.00;;
2570;SDS011;1295;51.130;6.732;2022-10-10T01:10:26;66.10;;;12.33;;
2570;SDS011;1295;51.130;6.732;2022-10-10T01:12:54;60.27;;;8.73;;
2570;SDS011;1295;51.130;6.732;2022-10-10T01:15:37;62.50;;;11.70;;
2570;SDS011;1295;51.130;6.732;2022-10-10T01:18:11;62.63;;;17.30;;
2570;SDS011;1295;51.130;6.732;2022-10-10T01:21:01;61.70;;;12.90;;
2570;SDS011;1295;51.130;6.732;2022-10-10T01:24:07;61.07;;;9.50;;
2570;SDS011;1295;51.130;6.732;2022-10-10T01:26:33;64.47;;;12.03;;
2570;SDS011;1295;51.130;6.732;2022-10-10T01:29:17;60.70;;;8.00;;
2570;SDS011;1295;51.130;6.732;2022-10-10T01:31:43;61.73;;;10.53;;
2570;SDS011;1295;51.130;6.732;2022-10-10T01:34:12;65.33;;;17.30;;
2570;SDS011;1295;51.130;6.732;2022-10-10T01:36:54;62.80;;;9.90;;
2570;SDS011;1295;51.130;6.732;2022-10-10T01:39:28;61.17;;;11.37;;
2570;SDS011;1295;51.130;6.732;2022-10-10T01:42:00;59.70;;;8.17;;
2570;SDS011;1295;51.130;6.732;2022-10-10T01:44:24;60.87;;;9.70;;
2570;SDS011;1295;51.130;6.732;2022-10-10T01:46:49;64.33;;;13.87;;
2570;SDS011;1295;51.130;6.732;2022-10-10T01:49:15;64.73;;;16.87;;
2570;SDS011;1295;51.130;6.732;2022-10-10T01:54:18;62.90;;;16.60;;
2570;SDS011;1295;51.130;6.732;2022-10-10T01:56:58;61.67;;;6.33;;
2570;SDS011;1295;51.130;6.732;2022-10-10T01:59:41;62.93;;;15.10;;
2570;SDS011;1295;51.130;6.732;2022-10-10T02:02:15;61.40;;;10.23;;
2570;SDS011;1295;51.130;6.732;2022-10-10T02:04:40;65.53;;;15.67;;
2570;SDS011;1295;51.130;6.732;2022-10-10T02:07:07;61.10;;;8.03;;
2570;SDS011;1295;51.130;6.732;2022-10-10T02:09:34;65.63;;;11.60;;
2570;SDS011;1295;51.130;6.732;2022-10-10T02:12:00;64.20;;;10.27;;
2570;SDS011;1295;51.130;6.732;2022-10-10T02:14:27;66.57;;;12.97;;
2570;SDS011;1295;51.130;6.732;2022-10-10T02:16:52;62.23;;;13.53;;
2570;SDS011;1295;51.130;6.732;2022-10-10T02:19:19;63.00;;;8.87;;
2570;SDS011;1295;51.130;6.732;2022-10-10T02:21:44;67.00;;;16.50;;
2570;SDS011;1295;51.130;6.732;2022-10-10T02:24:09;63.37;;;16.83;;
2570;SDS011;1295;51.130;6.732;2022-10-10T02:26:36;63.73;;;13.57;;
2570;SDS011;1295;51.130;6.732;2022-10-10T02:29:13;63.60;;;10.80;;
2570;SDS011;1295;51.130;6.732;2022-10-10T02:31:42;60.97;;;8.00;;
2570;SDS011;1295;51.130;6.732;2022-10-10T02:34:11;61.00;;;6.87;;
2570;SDS011;1295;51.130;6.732;2022-10-10T02:36:34;61.83;;;11.03;;
2570;SDS011;1295;51.130;6.732;2022-10-10T02:39:00;62.83;;;12.10;;
2570;SDS011;1295;51.130;6.732;2022-10-10T02:41:26;67.87;;;18.37;;
2570;SDS011;1295;51.130;6.732;2022-10-10T02:43:51;60.13;;;7.30;;
2570;SDS011;1295;51.130;6.732;2022-10-10T02:46:17;61.87;;;9.93;;
2570;SDS011;1295;51.130;6.732;2022-10-10T02:48:43;61.30;;;9.13;;
2570;SDS011;1295;51.130;6.732;2022-10-10T02:51:08;61.40;;;11.37;;
2570;SDS011;1295;51.130;6.732;2022-10-10T02:53:34;62.50;;;15.60;;
2570;SDS011;1295;51.130;6.732;2022-10-10T02:55:59;64.07;;;14.73;;
2570;SDS011;1295;51.130;6.732;2022-10-10T02:58:25;63.00;;;18.70;;
2570;SDS011;1295;51.130;6.732;2022-10-10T03:00:51;71.47;;;24.17;;
2570;SDS011;1295;51.130;6.732;2022-10-10T03:03:16;61.90;;;14.83;;
2570;SDS011;1295;51.130;6.732;2022-10-10T03:05:42;60.43;;;10.13;;
2570;SDS011;1295;51.130;6.732;2022-10-10T03:08:08;62.47;;;9.07;;
2570;SDS011;1295;51.130;6.732;2022-10-10T03:10:33;63.87;;;13.50;;
2570;SDS011;1295;51.130;6.732;2022-10-10T03:12:59;62.57;;;11.13;;
2570;SDS011;1295;51.130;6.732;2022-10-10T03:15:24;62.27;;;15.47;;
2570;SDS011;1295;51.130;6.732;2022-10-10T03:17:50;70.57;;;35.93;;
2570;SDS011;1295;51.130;6.732;2022-10-10T03:20:16;63.07;;;15.07;;
2570;SDS011;1295;51.130;6.732;2022-10-10T03:22:41;68.93;;;27.43;;
2570;SDS011;1295;51.130;6.732;2022-10-10T03:25:07;67.97;;;25.93;;
2570;SDS011;1295;51.130;6.732;2022-10-10T03:27:33;66.63;;;20.87;;
2570;SDS011;1295;51.130;6.732;2022-10-10T03:29:58;67.97;;;27.77;;
2570;SDS011;1295;51.130;6.732;2022-10-10T03:32:24;69.57;;;35.93;;
2570;SDS011;1295;51.130;6.732;2022-10-10T03:34:49;65.90;;;20.03;;
2570;SDS011;1295;51.130;6.732;2022-10-10T03:37:15;61.67;;;11.73;;
2570;SDS011;1295;51.130;6.732;2022-10-10T03:39:41;63.17;;;19.80;;
2570;SDS011;1295;51.130;6.732;2022-10-10T03:42:07;69.10;;;26.83;;
2570;SDS011;1295;51.130;6.732;2022-10-10T03:44:33;63.83;;;16.43;;
2570;SDS011;1295;51.130;6.732;2022-10-10T03:46:58;62.80;;;14.23;;
2570;SDS011;1295;51.130;6.732;2022-10-10T03:49:24;64.97;;;13.33;;
2570;SDS011;1295;51.130;6.732;2022-10-10T03:51:49;64.23;;;8.40;;
2570;SDS011;1295;51.130;6.732;2022-10-10T03:54:15;70.00;;;22.20;;
2570;SDS011;1295;51.130;6.732;2022-10-10T03:56:41;66.90;;;19.80;;
2570;SDS011;1295;51.130;6.732;2022-10-10T03:59:06;66.83;;;21.80;;
2570;SDS011;1295;51.130;6.732;2022-10-10T04:01:33;66.40;;;17.13;;
2570;SDS011;1295;51.130;6.732;2022-10-10T04:03:58;66.13;;;22.03;;
2570;SDS011;1295;51.130;6.732;2022-10-10T04:06:24;70.57;;;34.97;;
2570;SDS011;1295;51.130;6.732;2022-10-10T04:08:50;72.93;;;31.63;;
2570;SDS011;1295;51.130;6.732;2022-10-10T04:11:15;65.73;;;25.60;;
2570;SDS011;1295;51.130;6.732;2022-10-10T04:13:41;62.83;;;14.20;;
2570;SDS011;1295;51.130;6.732;2022-10-10T04:16:07;72.13;;;40.67;;
2570;SDS011;1295;51.130;6.732;2022-10-10T04:18:32;70.37;;;25.37;;
2570;SDS011;1295;51.130;6.732;2022-10-10T04:21:02;68.47;;;22.07;;
2570;SDS011;1295;51.130;6.732;2022-10-10T04:23:27;77.37;;;51.20;;
2570;SDS011;1295;51.130;6.732;2022-10-10T04:25:53;70.57;;;34.30;;
2570;SDS011;1295;51.130;6.732;2022-10-10T04:28:18;67.93;;;28.60;;
2570;SDS011;1295;51.130;6.732;2022-10-10T04:30:44;77.07;;;41.23;;
2570;SDS011;1295;51.130;6.732;2022-10-10T04:33:10;77.73;;;48.67;;
2570;SDS011;1295;51.130;6.732;2022-10-10T04:35:35;68.10;;;28.23;;
2570;SDS011;1295;51.130;6.732;2022-10-10T04:38:01;71.80;;;40.53;;
2570;SDS011;1295;51.130;6.732;2022-10-10T04:40:27;80.77;;;61.67;;
2570;SDS011;1295;51.130;6.732;2022-10-10T04:42:53;88.57;;;75.43;;
2570;SDS011;1295;51.130;6.732;2022-10-10T04:45:19;84.97;;;62.57;;
2570;SDS011;1295;51.130;6.732;2022-10-10T04:47:44;76.80;;;53.53;;
2570;SDS011;1295;51.130;6.732;2022-10-10T04:50:10;94.00;;;78.43;;
2570;SDS011;1295;51.130;6.732;2022-10-10T04:52:35;79.27;;;58.97;;
2570;SDS011;1295;51.130;6.732;2022-10-10T04:55:01;72.23;;;37.70;;
2570;SDS011;1295;51.130;6.732;2022-10-10T04:57:27;93.53;;;78.47;;
2570;SDS011;1295;51.130;6.732;2022-10-10T04:59:52;89.13;;;74.40;;
2570;SDS011;1295;51.130;6.732;2022-10-10T05:02:18;111.77;;;101.00;;
2570;SDS011;1295;51.130;6.732;2022-10-10T05:04:43;91.80;;;75.53;;
2570;SDS011;1295;51.130;6.732;2022-10-10T05:07:09;98.83;;;86.53;;
2570;SDS011;1295;51.130;6.732;2022-10-10T05:09:35;128.00;;;116.93;;
2570;SDS011;1295;51.130;6.732;2022-10-10T05:12:00;114.57;;;103.67;;
2570;SDS011;1295;51.130;6.732;2022-10-10T05:14:26;78.40;;;43.13;;
2570;SDS011;1295;51.130;6.732;2022-10-10T05:16:52;100.77;;;89.03;;
2570;SDS011;1295;51.130;6.732;2022-10-10T05:19:17;125.27;;;113.83;;
2570;SDS011;1295;51.130;6.732;2022-10-10T05:21:43;123.87;;;112.63;;
2570;SDS011;1295;51.130;6.732;2022-10-10T05:24:08;107.47;;;96.83;;
2570;SDS011;1295;51.130;6.732;2022-10-10T05:26:34;86.27;;;74.70;;
2570;SDS011;1295;51.130;6.732;2022-10-10T05:29:05;144.97;;;133.13;;
2570;SDS011;1295;51.130;6.732;2022-10-10T05:31:30;118.67;;;107.53;;
2570;SDS011;1295;51.130;6.732;2022-10-10T05:33:56;111.43;;;100.93;;
2570;SDS011;1295;51.130;6.732;2022-10-10T05:36:21;72.20;;;36.70;;
2570;SDS011;1295;51.130;6.732;2022-10-10T05:38:47;114.63;;;103.37;;
2570;SDS011;1295;51.130;6.732;2022-10-10T05:41:13;178.57;;;165.87;;
2570;SDS011;1295;51.130;6.732;2022-10-10T05:43:38;104.13;;;93.30;;
2570;SDS011;1295;51.130;6.732;2022-10-10T05:46:04;78.37;;;48.03;;
2570;SDS011;1295;51.130;6.732;2022-10-10T05:48:40;135.60;;;123.83;;
2570;SDS011;1295;51.130;6.732;2022-10-10T05:51:06;137.93;;;125.77;;
2570;SDS011;1295;51.130;6.732;2022-10-10T05:53:31;164.27;;;151.50;;
2570;SDS011;1295;51.130;6.732;2022-10-10T05:55:59;121.33;;;109.63;;
2570;SDS011;1295;51.130;6.732;2022-10-10T05:58:23;116.23;;;105.27;;
2570;SDS011;1295;51.130;6.732;2022-10-10T06:00:49;106.70;;;95.90;;
2570;SDS011;1295;51.130;6.732;2022-10-10T06:03:15;91.50;;;79.47;;
2570;SDS011;1295;51.130;6.732;2022-10-10T06:05:40;104.07;;;87.87;;
2570;SDS011;1295;51.130;6.732;2022-10-10T06:08:06;93.50;;;82.73;;
2570;SDS011;1295;51.130;6.732;2022-10-10T06:10:33;83.60;;;51.17;;
2570;SDS011;1295;51.130;6.732;2022-10-10T06:12:59;110.07;;;99.30;;
2570;SDS011;1295;51.130;6.732;2022-10-10T06:15:24;96.57;;;77.23;;
2570;SDS011;1295;51.130;6.732;2022-10-10T06:17:50;94.30;;;83.97;;
2570;SDS011;1295;51.130;6.732;2022-10-10T06:20:16;85.57;;;59.20;;
2570;SDS011;1295;51.130;6.732;2022-10-10T06:22:42;149.77;;;137.90;;
2570;SDS011;1295;51.130;6.732;2022-10-10T06:25:08;91.47;;;70.67;;
2570;SDS011;1295;51.130;6.732;2022-10-10T06:27:33;91.33;;;55.47;;
2570;SDS011;1295;51.130;6.732;2022-10-10T06:29:59;114.13;;;103.03;;
2570;SDS011;1295;51.130;6.732;2022-10-10T06:32:25;103.57;;;92.90;;
2570;SDS011;1295;51.130;6.732;2022-10-10T06:34:51;109.40;;;98.70;;
2570;SDS011;1295;51.130;6.732;2022-10-10T06:37:17;82.37;;;37.23;;
2570;SDS011;1295;51.130;6.732;2022-10-10T06:39:43;85.63;;;55.03;;
2570;SDS011;1295;51.130;6.732;2022-10-10T06:42:09;80.27;;;44.20;;
2570;SDS011;1295;51.130;6.732;2022-10-10T06:44:35;76.83;;;27.90;;
2570;SDS011;1295;51.130;6.732;2022-10-10T06:47:00;84.03;;;36.73;;
2570;SDS011;1295;51.130;6.732;2022-10-10T06:49:26;79.70;;;43.57;;
2570;SDS011;1295;51.130;6.732;2022-10-10T06:51:52;75.97;;;30.63;;
2570;SDS011;1295;51.130;6.732;2022-10-10T06:54:18;76.67;;;28.83;;
2570;SDS011;1295;51.130;6.732;2022-10-10T06:56:43;72.17;;;19.33;;
2570;SDS011;1295;51.130;6.732;2022-10-10T06:59:10;78.10;;;33.33;;
2570;SDS011;1295;51.130;6.732;2022-10-10T07:01:36;74.87;;;22.60;;
2570;SDS011;1295;51.130;6.732;2022-10-10T07:04:01;75.50;;;29.80;;
2570;SDS011;1295;51.130;6.732;2022-10-10T07:06:27;75.83;;;29.60;;
2570;SDS011;1295;51.130;6.732;2022-10-10T07:08:52;70.60;;;23.80;;
2570;SDS011;1295;51.130;6.732;2022-10-10T07:11:18;79.20;;;33.97;;
2570;SDS011;1295;51.130;6.732;2022-10-10T07:13:44;80.50;;;49.13;;
2570;SDS011;1295;51.130;6.732;2022-10-10T07:16:09;74.97;;;22.40;;
2570;SDS011;1295;51.130;6.732;2022-10-10T07:18:35;71.73;;;19.67;;
2570;SDS011;1295;51.130;6.732;2022-10-10T07:21:01;75.53;;;26.77;;
2570;SDS011;1295;51.130;6.732;2022-10-10T07:23:26;79.57;;;34.40;;
2570;SDS011;1295;51.130;6.732;2022-10-10T07:25:57;80.07;;;33.30;;
2570;SDS011;1295;51.130;6.732;2022-10-10T07:28:17;86.03;;;62.30;;
2570;SDS011;1295;51.130;6.732;2022-10-10T07:30:44;69.70;;;26.80;;
2570;SDS011;1295;51.130;6.732;2022-10-10T07:33:10;75.13;;;32.83;;
2570;SDS011;1295;51.130;6.732;2022-10-10T07:35:35;75.30;;;27.03;;
2570;SDS011;1295;51.130;6.732;2022-10-10T07:38:01;74.67;;;32.27;;
2570;SDS011;1295;51.130;6.732;2022-10-10T07:40:27;79.20;;;38.43;;
2570;SDS011;1295;51.130;6.732;2022-10-10T07:42:53;73.67;;;29.93;;
2570;SDS011;1295;51.130;6.732;2022-10-10T07:45:18;75.77;;;30.33;;
2570;SDS011;1295;51.130;6.732;2022-10-10T07:47:44;78.37;;;27.67;;
2570;SDS011;1295;51.130;6.732;2022-10-10T07:50:10;72.40;;;25.13;;
2570;SDS011;1295;51.130;6.732;2022-10-10T07:52:35;80.13;;;31.40;;
2570;SDS011;1295;51.130;6.732;2022-10-10T07:55:01;74.63;;;28.70;;
2570;SDS011;1295;51.130;6.732;2022-10-10T07:57:26;73.90;;;27.90;;
2570;SDS011;1295;51.130;6.732;2022-10-10T07:59:52;76.20;;;38.53;;
2570;SDS011;1295;51.130;6.732;2022-10-10T08:02:18;84.20;;;42.10;;
2570;SDS011;1295;51.130;6.732;2022-10-10T08:04:43;73.30;;;40.40;;
2570;SDS011;1295;51.130;6.732;2022-10-10T08:07:09;81.40;;;46.13;;
2570;SDS011;1295;51.130;6.732;2022-10-10T08:09:35;77.27;;;41.20;;
2570;SDS011;1295;51.130;6.732;2022-10-10T08:12:00;78.07;;;40.43;;
2570;SDS011;1295;51.130;6.732;2022-10-10T08:14:26;73.10;;;39.50;;
2570;SDS011;1295;51.130;6.732;2022-10-10T08:16:51;75.00;;;41.17;;
2570;SDS011;1295;51.130;6.732;2022-10-10T08:19:17;74.40;;;34.80;;
2570;SDS011;1295;51.130;6.732;2022-10-10T08:21:43;76.47;;;34.27;;
2570;SDS011;1295;51.130;6.732;2022-10-10T08:24:08;76.83;;;31.53;;
2570;SDS011;1295;51.130;6.732;2022-10-10T08:26:34;74.33;;;44.17;;
2570;SDS011;1295;51.130;6.732;2022-10-10T08:29:00;75.30;;;29.90;;
2570;SDS011;1295;51.130;6.732;2022-10-10T08:31:26;70.70;;;20.00;;
2570;SDS011;1295;51.130;6.732;2022-10-10T08:33:55;79.67;;;29.50;;
2570;SDS011;1295;51.130;6.732;2022-10-10T08:36:19;84.90;;;46.93;;
2570;SDS011;1295;51.130;6.732;2022-10-10T08:38:44;80.83;;;33.83;;
2570;SDS011;1295;51.130;6.732;2022-10-10T08:41:13;84.40;;;40.37;;
2570;SDS011;1295;51.130;6.732;2022-10-10T08:43:39;91.43;;;72.30;;
2570;SDS011;1295;51.130;6.732;2022-10-10T08:46:06;100.90;;;80.87;;
2570;SDS011;1295;51.130;6.732;2022-10-10T08:48:28;66.80;;;16.30;;
2570;SDS011;1295;51.130;6.732;2022-10-10T08:50:55;77.83;;;29.73;;
2570;SDS011;1295;51.130;6.732;2022-10-10T08:53:21;73.43;;;30.50;;
2570;SDS011;1295;51.130;6.732;2022-10-10T08:55:46;79.27;;;32.17;;
2570;SDS011;1295;51.130;6.732;2022-10-10T08:58:17;76.17;;;40.87;;
2570;SDS011;1295;51.130;6.732;2022-10-10T09:00:45;88.03;;;61.87;;
2570;SDS011;1295;51.130;6.732;2022-10-10T09:03:23;90.77;;;66.60;;
2570;SDS011;1295;51.130;6.732;2022-10-10T09:06:30;118.47;;;107.17;;
2570;SDS011;1295;51.130;6.732;2022-10-10T09:08:53;173.60;;;160.10;;
2570;SDS011;1295;51.130;6.732;2022-10-10T09:13:58;96.67;;;86.07;;
2570;SDS011;1295;51.130;6.732;2022-10-10T09:16:40;96.17;;;84.20;;
2570;SDS011;1295;51.130;6.732;2022-10-10T09:19:11;83.37;;;58.67;;
2570;SDS011;1295;51.130;6.732;2022-10-10T09:21:52;123.33;;;111.83;;
2570;SDS011;1295;51.130;6.732;2022-10-10T09:24:23;111.23;;;100.57;;
2570;SDS011;1295;51.130;6.732;2022-10-10T09:26:48;95.07;;;83.03;;
2570;SDS011;1295;51.130;6.732;2022-10-10T09:32:01;102.90;;;90.70;;
2570;SDS011;1295;51.130;6.732;2022-10-10T09:34:38;146.67;;;133.80;;
2570;SDS011;1295;51.130;6.732;2022-10-10T09:37:09;89.93;;;55.43;;
2570;SDS011;1295;51.130;6.732;2022-10-10T09:39:37;94.73;;;83.27;;
2570;SDS011;1295;51.130;6.732;2022-10-10T09:42:04;85.80;;;64.57;;
2570;SDS011;1295;51.130;6.732;2022-10-10T09:44:30;74.83;;;29.57;;
2570;SDS011;1295;51.130;6.732;2022-10-10T09:46:55;78.37;;;40.00;;
2570;SDS011;1295;51.130;6.732;2022-10-10T09:49:20;94.43;;;84.23;;
2570;SDS011;1295;51.130;6.732;2022-10-10T09:51:47;82.20;;;42.87;;
2570;SDS011;1295;51.130;6.732;2022-10-10T09:54:13;89.73;;;67.30;;
2570;SDS011;1295;51.130;6.732;2022-10-10T09:56:41;77.73;;;44.93;;
2570;SDS011;1295;51.130;6.732;2022-10-10T09:59:04;88.33;;;57.60;;
2570;SDS011;1295;51.130;6.732;2022-10-10T10:02:00;80.87;;;35.80;;
2570;SDS011;1295;51.130;6.732;2022-10-10T10:04:15;86.10;;;45.80;;
2570;SDS011;1295;51.130;6.732;2022-10-10T10:06:43;74.67;;;29.20;;
2570;SDS011;1295;51.130;6.732;2022-10-10T10:09:12;75.53;;;21.70;;
2570;SDS011;1295;51.130;6.732;2022-10-10T10:11:34;87.20;;;51.43;;
2570;SDS011;1295;51.130;6.732;2022-10-10T10:13:59;192.47;;;178.33;;
2570;SDS011;1295;51.130;6.732;2022-10-10T10:16:29;71.67;;;21.17;;
2570;SDS011;1295;51.130;6.732;2022-10-10T10:18:54;70.63;;;16.07;;
2570;SDS011;1295;51.130;6.732;2022-10-10T10:21:21;108.37;;;97.27;;
2570;SDS011;1295;51.130;6.732;2022-10-10T10:26:25;97.50;;;67.00;;
2570;SDS011;1295;51.130;6.732;2022-10-10T10:28:50;109.87;;;91.00;;
2570;SDS011;1295;51.130;6.732;2022-10-10T10:34:22;141.47;;;128.47;;
2570;SDS011;1295;51.130;6.732;2022-10-10T10:37:03;114.10;;;102.73;;
2570;SDS011;1295;51.130;6.732;2022-10-10T10:39:44;90.47;;;68.03;;
2570;SDS011;1295;51.130;6.732;2022-10-10T10:42:19;169.00;;;155.80;;
2570;SDS011;1295;51.130;6.732;2022-10-10T10:44:50;70.47;;;11.90;;
2570;SDS011;1295;51.130;6.732;2022-10-10T10:52:49;67.40;;;9.43;;
2570;SDS011;1295;51.130;6.732;2022-10-10T10:55:20;69.43;;;9.87;;
2570;SDS011;1295;51.130;6.732;2022-10-10T11:00:47;71.43;;;13.13;;
2570;SDS011;1295;51.130;6.732;2022-10-10T11:03:26;70.27;;;16.23;;
2570;SDS011;1295;51.130;6.732;2022-10-10T11:05:57;69.83;;;15.23;;
2570;SDS011;1295;51.130;6.732;2022-10-10T11:08:27;70.20;;;13.90;;
2570;SDS011;1295;51.130;6.732;2022-10-10T11:13:44;64.67;;;12.53;;
2570;SDS011;1295;51.130;6.732;2022-10-10T11:16:17;67.53;;;11.70;;
2570;SDS011;1295;51.130;6.732;2022-10-10T11:19:05;69.37;;;16.23;;
2570;SDS011;1295;51.130;6.732;2022-10-10T11:21:32;87.67;;;55.73;;
2570;SDS011;1295;51.130;6.732;2022-10-10T11:24:01;69.67;;;17.13;;
2570;SDS011;1295;51.130;6.732;2022-10-10T11:26:29;68.13;;;12.50;;
2570;SDS011;1295;51.130;6.732;2022-10-10T11:28:57;67.10;;;14.03;;
2570;SDS011;1295;51.130;6.732;2022-10-10T11:31:24;66.77;;;14.43;;
2570;SDS011;1295;51.130;6.732;2022-10-10T11:33:51;67.90;;;15.73;;
2570;SDS011;1295;51.130;6.732;2022-10-10T11:36:15;68.57;;;11.80;;
2570;SDS011;1295;51.130;6.732;2022-10-10T11:38:41;68.00;;;11.90;;
2570;SDS011;1295;51.130;6.732;2022-10-10T11:41:11;70.40;;;13.57;;
2570;SDS011;1295;51.130;6.732;2022-10-10T11:43:36;70.10;;;12.60;;
2570;SDS011;1295;51.130;6.732;2022-10-10T11:46:10;66.80;;;12.40;;
2570;SDS011;1295;51.130;6.732;2022-10-10T11:48:36;84.63;;;35.87;;
2570;SDS011;1295;51.130;6.732;2022-10-10T11:51:03;67.37;;;16.60;;
2570;SDS011;1295;51.130;6.732;2022-10-10T11:53:35;75.33;;;16.67;;
2570;SDS011;1295;51.130;6.732;2022-10-10T11:56:02;78.23;;;18.53;;
2570;SDS011;1295;51.130;6.732;2022-10-10T11:58:34;71.10;;;17.27;;
2570;SDS011;1295;51.130;6.732;2022-10-10T12:01:11;72.73;;;16.80;;
2570;SDS011;1295;51.130;6.732;2022-10-10T12:03:31;75.03;;;16.77;;
2570;SDS011;1295;51.130;6.732;2022-10-10T12:06:02;67.67;;;16.07;;
2570;SDS011;1295;51.130;6.732;2022-10-10T12:08:31;75.77;;;13.17;;
2570;SDS011;1295;51.130;6.732;2022-10-10T12:10:58;70.37;;;16.47;;
2570;SDS011;1295;51.130;6.732;2022-10-10T12:13:27;71.17;;;14.07;;
2570;SDS011;1295;51.130;6.732;2022-10-10T12:16:08;66.30;;;15.33;;
2570;SDS011;1295;51.130;6.732;2022-10-10T12:18:38;68.67;;;13.80;;
2570;SDS011;1295;51.130;6.732;2022-10-10T12:21:06;68.20;;;15.63;;
2570;SDS011;1295;51.130;6.732;2022-10-10T12:23:34;74.67;;;18.70;;
2570;SDS011;1295;51.130;6.732;2022-10-10T12:25:59;70.83;;;18.40;;
2570;SDS011;1295;51.130;6.732;2022-10-10T12:28:32;86.83;;;62.67;;
2570;SDS011;1295;51.130;6.732;2022-10-10T12:31:16;84.83;;;16.03;;
2570;SDS011;1295;51.130;6.732;2022-10-10T12:36:41;78.67;;;40.17;;
2570;SDS011;1295;51.130;6.732;2022-10-10T12:39:32;71.17;;;14.13;;
2570;SDS011;1295;51.130;6.732;2022-10-10T12:41:55;71.63;;;13.23;;
2570;SDS011;1295;51.130;6.732;2022-10-10T12:44:40;69.10;;;12.53;;
2570;SDS011;1295;51.130;6.732;2022-10-10T12:49:34;72.03;;;13.60;;
2570;SDS011;1295;51.130;6.732;2022-10-10T12:52:02;69.77;;;13.47;;
2570;SDS011;1295;51.130;6.732;2022-10-10T12:54:27;75.27;;;13.80;;
2570;SDS011;1295;51.130;6.732;2022-10-10T12:56:58;77.93;;;16.10;;
2570;SDS011;1295;51.130;6.732;2022-10-10T12:59:19;69.47;;;15.87;;
2570;SDS011;1295;51.130;6.732;2022-10-10T13:01:46;75.90;;;18.40;;
2570;SDS011;1295;51.130;6.732;2022-10-10T13:04:14;73.00;;;10.33;;
2570;SDS011;1295;51.130;6.732;2022-10-10T13:06:37;79.30;;;19.93;;
2570;SDS011;1295;51.130;6.732;2022-10-10T13:09:02;67.17;;;15.07;;
2570;SDS011;1295;51.130;6.732;2022-10-10T13:11:27;80.17;;;25.67;;
2570;SDS011;1295;51.130;6.732;2022-10-10T13:13:54;80.20;;;24.53;;
2570;SDS011;1295;51.130;6.732;2022-10-10T13:16:20;96.07;;;72.17;;
2570;SDS011;1295;51.130;6.732;2022-10-10T13:18:52;84.90;;;25.57;;
2570;SDS011;1295;51.130;6.732;2022-10-10T13:21:20;78.57;;;45.67;;
2570;SDS011;1295;51.130;6.732;2022-10-10T13:23:45;82.67;;;23.93;;
2570;SDS011;1295;51.130;6.732;2022-10-10T13:28:44;88.33;;;53.10;;
2570;SDS011;1295;51.130;6.732;2022-10-10T13:31:11;87.07;;;46.53;;
2570;SDS011;1295;51.130;6.732;2022-10-10T13:33:37;90.30;;;53.00;;
2570;SDS011;1295;51.130;6.732;2022-10-10T13:36:03;81.10;;;33.30;;
2570;SDS011;1295;51.130;6.732;2022-10-10T13:38:28;78.33;;;23.67;;
2570;SDS011;1295;51.130;6.732;2022-10-10T13:40:54;79.63;;;25.20;;
2570;SDS011;1295;51.130;6.732;2022-10-10T13:43:19;76.17;;;22.03;;
2570;SDS011;1295;51.130;6.732;2022-10-10T13:45:47;74.17;;;22.63;;
2570;SDS011;1295;51.130;6.732;2022-10-10T13:48:16;79.77;;;32.57;;
2570;SDS011;1295;51.130;6.732;2022-10-10T13:50:49;86.30;;;29.37;;
2570;SDS011;1295;51.130;6.732;2022-10-10T13:53:23;78.90;;;24.80;;
2570;SDS011;1295;51.130;6.732;2022-10-10T13:56:03;91.90;;;38.67;;
2570;SDS011;1295;51.130;6.732;2022-10-10T13:58:27;81.23;;;31.50;;
2570;SDS011;1295;51.130;6.732;2022-10-10T14:00:56;75.40;;;25.60;;
2570;SDS011;1295;51.130;6.732;2022-10-10T14:03:21;86.03;;;33.77;;
2570;SDS011;1295;51.130;6.732;2022-10-10T14:05:47;94.83;;;68.77;;
2570;SDS011;1295;51.130;6.732;2022-10-10T14:08:14;84.37;;;30.70;;
2570;SDS011;1295;51.130;6.732;2022-10-10T14:10:38;76.43;;;25.60;;
2570;SDS011;1295;51.130;6.732;2022-10-10T14:13:03;77.77;;;22.63;;
2570;SDS011;1295;51.130;6.732;2022-10-10T14:15:33;83.53;;;24.73;;
2570;SDS011;1295;51.130;6.732;2022-10-10T14:18:01;75.33;;;15.90;;
2570;SDS011;1295;51.130;6.732;2022-10-10T14:20:26;81.17;;;22.07;;
2570;SDS011;1295;51.130;6.732;2022-10-10T14:22:52;77.83;;;28.00;;
2570;SDS011;1295;51.130;6.732;2022-10-10T14:25:18;85.07;;;26.77;;
2570;SDS011;1295;51.130;6.732;2022-10-10T14:27:43;79.17;;;28.63;;
2570;SDS011;1295;51.130;6.732;2022-10-10T14:30:09;93.50;;;49.20;;
2570;SDS011;1295;51.130;6.732;2022-10-10T14:32:35;78.93;;;28.03;;
2570;SDS011;1295;51.130;6.732;2022-10-10T14:35:00;80.80;;;33.90;;
2570;SDS011;1295;51.130;6.732;2022-10-10T14:37:27;94.00;;;48.57;;
2570;SDS011;1295;51.130;6.732;2022-10-10T14:39:52;112.37;;;99.43;;
2570;SDS011;1295;51.130;6.732;2022-10-10T14:42:17;87.83;;;57.47;;
2570;SDS011;1295;51.130;6.732;2022-10-10T14:44:43;104.97;;;87.63;;
2570;SDS011;1295;51.130;6.732;2022-10-10T14:47:14;100.50;;;69.90;;
2570;SDS011;1295;51.130;6.732;2022-10-10T14:49:38;119.77;;;107.93;;
2570;SDS011;1295;51.130;6.732;2022-10-10T14:52:04;108.50;;;88.17;;
2570;SDS011;1295;51.130;6.732;2022-10-10T14:54:30;96.30;;;66.73;;
2570;SDS011;1295;51.130;6.732;2022-10-10T14:56:55;84.07;;;25.53;;
2570;SDS011;1295;51.130;6.732;2022-10-10T14:59:21;87.87;;;46.90;;
2570;SDS011;1295;51.130;6.732;2022-10-10T15:01:47;81.57;;;29.23;;
2570;SDS011;1295;51.130;6.732;2022-10-10T15:04:13;89.60;;;37.87;;
2570;SDS011;1295;51.130;6.732;2022-10-10T15:06:38;81.33;;;29.13;;
2570;SDS011;1295;51.130;6.732;2022-10-10T15:09:03;85.60;;;26.33;;
2570;SDS011;1295;51.130;6.732;2022-10-10T15:11:29;101.03;;;53.27;;
2570;SDS011;1295;51.130;6.732;2022-10-10T15:13:55;86.77;;;29.80;;
2570;SDS011;1295;51.130;6.732;2022-10-10T15:16:20;83.97;;;21.13;;
2570;SDS011;1295;51.130;6.732;2022-10-10T15:18:46;71.37;;;16.57;;
2570;SDS011;1295;51.130;6.732;2022-10-10T15:21:11;81.77;;;16.43;;